createdAt,value
2018-02-02T00:00:14.752Z,1.01
2018-02-02T00:01:14.661Z,0.90
2018-02-02T00:02:14.630Z,0.88
2018-02-02T00:03:14.727Z,0.78
2018-02-02T00:04:14.558Z,0.71
2018-02-02T00:05:14.687Z,0.71
2018-02-02T00:06:14.409Z,0.53
2018-02-02T00:07:14.498Z,0.49
2018-02-02T00:08:14.469Z,0.36
2018-02-02T00:09:14.365Z,0.36
2018-02-02T00:10:14.338Z,0.46
2018-02-02T00:11:14.272Z,0.52
2018-02-02T00:12:14.176Z,0.60
2018-02-02T00:13:14.270Z,0.60
2018-02-02T00:14:14.141Z,0.72
2018-02-02T00:15:14.352Z,0.75
2018-02-02T00:16:13.963Z,0.72
2018-02-02T00:17:14.167Z,0.98
2018-02-02T00:18:13.953Z,1.16
2018-02-02T00:19:14.101Z,1.19
2018-02-02T00:20:13.806Z,1.25
2018-02-02T00:21:13.828Z,1.12
2018-02-02T00:22:14.501Z,1.16
2018-02-02T00:23:13.633Z,1.10
2018-02-02T00:24:13.675Z,1.24
2018-02-02T00:25:13.918Z,1.39
2018-02-02T00:26:13.776Z,1.29
2018-02-02T00:27:13.614Z,1.19
2018-02-02T00:28:13.503Z,1.28
2018-02-02T00:29:13.623Z,1.29
2018-02-02T00:30:13.355Z,1.34
2018-02-02T00:31:13.364Z,1.37
2018-02-02T00:32:15.220Z,1.46
2018-02-02T00:33:13.209Z,1.42
2018-02-02T00:34:13.219Z,1.51
2018-02-02T00:35:13.138Z,1.43
2018-02-02T00:36:13.102Z,1.52
2018-02-02T00:37:12.961Z,1.60
2018-02-02T00:38:12.935Z,1.57
2018-02-02T00:39:12.907Z,1.47
2018-02-02T00:40:12.805Z,1.42
2018-02-02T00:41:13.167Z,1.37
2018-02-02T00:42:12.887Z,1.32
2018-02-02T00:43:12.708Z,1.19
2018-02-02T00:44:12.617Z,1.15
2018-02-02T00:45:12.692Z,1.15
2018-02-02T00:46:12.544Z,1.12
2018-02-02T00:47:12.531Z,1.10
2018-02-02T00:48:12.537Z,1.08
2018-02-02T00:49:12.519Z,1.18
2018-02-02T00:50:12.546Z,1.19
2018-02-02T00:51:12.424Z,1.14
2018-02-02T00:52:12.299Z,1.10
2018-02-02T00:53:12.207Z,1.29
2018-02-02T00:54:12.285Z,1.29
2018-02-02T00:55:12.413Z,1.19
2018-02-02T00:56:12.200Z,1.14
2018-02-02T00:57:12.086Z,1.01
2018-02-02T00:58:12.500Z,1.00
2018-02-02T00:59:11.901Z,0.86
2018-02-02T01:00:11.969Z,0.90
2018-02-02T01:01:12.097Z,0.90
2018-02-02T01:02:11.876Z,0.88
2018-02-02T01:03:11.751Z,0.88
2018-02-02T01:04:12.497Z,0.64
2018-02-02T01:05:11.717Z,0.71
2018-02-02T01:06:11.732Z,0.80
2018-02-02T01:07:12.526Z,0.46
2018-02-02T01:08:11.579Z,0.49
2018-02-02T01:09:11.553Z,0.38
2018-02-02T01:10:11.515Z,0.42
2018-02-02T01:11:11.426Z,0.24
2018-02-02T01:12:11.430Z,0.23
2018-02-02T01:13:11.380Z,0.27
2018-02-02T01:14:11.202Z,0.18
2018-02-02T01:15:11.230Z,0.05
2018-02-02T01:16:11.142Z,0.12
2018-02-02T01:17:11.073Z,0.25
2018-02-02T01:18:11.081Z,0.12
2018-02-02T01:19:11.143Z,0.13
2018-02-02T01:20:11.052Z,0.06
2018-02-02T01:21:10.919Z,0.15
2018-02-02T01:22:10.826Z,0.07
2018-02-02T01:23:10.785Z,-0.08
2018-02-02T01:24:10.756Z,-0.01
2018-02-02T01:25:11.795Z,-0.09
2018-02-02T01:26:11.501Z,-0.13
2018-02-02T01:27:10.700Z,-0.29
2018-02-02T01:28:10.612Z,-0.26
2018-02-02T01:29:10.480Z,-0.16
2018-02-02T01:30:10.491Z,-0.31
2018-02-02T01:31:10.491Z,-0.33
2018-02-02T01:32:10.351Z,-0.39
2018-02-02T01:33:10.286Z,-0.22
2018-02-02T01:34:10.252Z,-0.15
2018-02-02T01:35:10.197Z,-0.18
2018-02-02T01:36:10.182Z,-0.22
2018-02-02T01:37:10.107Z,-0.18
2018-02-02T01:38:10.154Z,-0.09
2018-02-02T01:39:09.998Z,-0.06
2018-02-02T01:40:10.075Z,-0.22
2018-02-02T01:41:09.918Z,-0.33
2018-02-02T01:42:09.859Z,-0.18
2018-02-02T01:43:09.823Z,-0.08
2018-02-02T01:44:09.768Z,-0.24
2018-02-02T01:45:09.737Z,-0.34
2018-02-02T01:46:09.672Z,-0.24
2018-02-02T01:47:09.622Z,-0.11
2018-02-02T01:48:09.596Z,-0.15
2018-02-02T01:49:09.538Z,-0.26
2018-02-02T01:50:09.479Z,-0.33
2018-02-02T01:51:09.436Z,-0.22
2018-02-02T01:52:09.534Z,-0.15
2018-02-02T01:53:09.322Z,-0.16
2018-02-02T01:54:09.298Z,-0.36
2018-02-02T01:55:09.277Z,-0.31
2018-02-02T01:56:09.235Z,-0.54
2018-02-02T01:57:09.142Z,-0.65
2018-02-02T01:58:09.112Z,-0.77
2018-02-02T01:59:09.050Z,-0.87
2018-02-02T02:00:09.008Z,-0.84
2018-02-02T02:01:08.952Z,-0.80
2018-02-02T02:02:08.967Z,-0.94
2018-02-02T02:03:08.862Z,-0.77
2018-02-02T02:04:08.804Z,-0.60
2018-02-02T02:05:08.751Z,-0.69
2018-02-02T02:06:08.712Z,-0.60
2018-02-02T02:07:08.687Z,-0.51
2018-02-02T02:08:08.661Z,-0.23
2018-02-02T02:09:08.563Z,-0.27
2018-02-02T02:10:08.516Z,-0.48
2018-02-02T02:11:08.480Z,-0.54
2018-02-02T02:12:08.535Z,-0.55
2018-02-02T02:13:08.366Z,-0.78
2018-02-02T02:14:08.336Z,-0.92
2018-02-02T02:15:08.266Z,-0.89
2018-02-02T02:16:08.215Z,-0.99
2018-02-02T02:17:08.194Z,-1.06
2018-02-02T02:18:08.131Z,-1.25
2018-02-02T02:19:08.076Z,-1.18
2018-02-02T02:20:08.034Z,-1.13
2018-02-02T02:21:08.010Z,-0.95
2018-02-02T02:22:07.924Z,-0.78
2018-02-02T02:23:07.879Z,-0.69
2018-02-02T02:24:07.829Z,-0.69
2018-02-02T02:25:07.802Z,-0.86
2018-02-02T02:26:07.754Z,-0.95
2018-02-02T02:27:07.690Z,-0.70
2018-02-02T02:28:07.664Z,-0.54
2018-02-02T02:29:07.627Z,-0.57
2018-02-02T02:30:07.583Z,-0.69
2018-02-02T02:31:07.511Z,-0.69
2018-02-02T02:32:07.443Z,-0.55
2018-02-02T02:33:07.400Z,-0.52
2018-02-02T02:34:07.349Z,-0.51
2018-02-02T02:35:07.308Z,-0.77
2018-02-02T02:36:07.248Z,-0.80
2018-02-02T02:37:07.239Z,-0.78
2018-02-02T02:38:07.153Z,-0.84
2018-02-02T02:39:07.106Z,-0.94
2018-02-02T02:40:07.065Z,-0.84
2018-02-02T02:41:07.025Z,-1.00
2018-02-02T02:42:06.961Z,-1.02
2018-02-02T02:43:06.912Z,-0.91
2018-02-02T02:44:06.868Z,-0.37
2018-02-02T02:45:06.832Z,-0.60
2018-02-02T02:46:06.810Z,-0.72
2018-02-02T02:47:06.723Z,-0.69
2018-02-02T02:48:06.683Z,-0.60
2018-02-02T02:49:06.622Z,-0.51
2018-02-02T02:50:06.563Z,-0.33
2018-02-02T02:51:06.522Z,-0.39
2018-02-02T02:52:06.489Z,-0.37
2018-02-02T02:53:06.422Z,-0.31
2018-02-02T02:54:06.373Z,-0.48
2018-02-02T02:55:06.324Z,-0.60
2018-02-02T02:56:06.284Z,-0.83
2018-02-02T02:57:06.248Z,-0.91
2018-02-02T02:58:06.186Z,-0.80
2018-02-02T02:59:06.130Z,-0.78
2018-02-02T03:00:06.085Z,-0.72
2018-02-02T03:01:06.058Z,-0.68
2018-02-02T03:02:05.994Z,-0.66
2018-02-02T03:03:05.949Z,-0.62
2018-02-02T03:04:05.896Z,-0.52
2018-02-02T03:05:05.855Z,-0.42
2018-02-02T03:06:05.795Z,-0.57
2018-02-02T03:07:05.811Z,-0.75
2018-02-02T03:08:05.707Z,-0.72
2018-02-02T03:09:05.660Z,-0.72
2018-02-02T03:10:05.605Z,-0.65
2018-02-02T03:11:05.563Z,-0.86
2018-02-02T03:12:05.499Z,-0.87
2018-02-02T03:13:05.454Z,-0.99
2018-02-02T03:14:05.399Z,-1.15
2018-02-02T03:15:05.388Z,-1.28
2018-02-02T03:16:05.324Z,-1.20
2018-02-02T03:17:05.261Z,-1.10
2018-02-02T03:18:05.230Z,-1.13
2018-02-02T03:19:05.244Z,-1.25
2018-02-02T03:20:05.108Z,-1.27
2018-02-02T03:21:05.076Z,-1.12
2018-02-02T03:22:05.037Z,-1.17
2018-02-02T03:23:04.960Z,-1.12
2018-02-02T03:24:04.954Z,-1.15
2018-02-02T03:25:04.890Z,-1.13
2018-02-02T03:26:04.825Z,-0.94
2018-02-02T03:27:04.814Z,-0.99
2018-02-02T03:28:04.742Z,-1.13
2018-02-02T03:29:04.674Z,-1.30
2018-02-02T03:30:04.641Z,-1.33
2018-02-02T03:31:04.573Z,-1.21
2018-02-02T03:32:04.562Z,-1.30
2018-02-02T03:33:04.494Z,-1.15
2018-02-02T03:34:04.437Z,-1.18
2018-02-02T03:35:04.381Z,-1.17
2018-02-02T03:36:04.328Z,-1.28
2018-02-02T03:37:04.298Z,-1.20
2018-02-02T03:38:04.227Z,-1.10
2018-02-02T03:39:04.190Z,-1.20
2018-02-02T03:40:04.137Z,-1.28
2018-02-02T03:41:04.079Z,-1.42
2018-02-02T03:42:04.068Z,-1.51
2018-02-02T03:43:04.031Z,-1.48
2018-02-02T03:44:03.950Z,-1.54
2018-02-02T03:45:03.885Z,-1.54
2018-02-02T03:46:03.837Z,-1.53
2018-02-02T03:47:03.800Z,-1.48
2018-02-02T03:48:03.743Z,-1.48
2018-02-02T03:49:03.805Z,-1.63
2018-02-02T03:50:03.646Z,-1.67
2018-02-02T03:51:03.629Z,-1.54
2018-02-02T03:52:03.543Z,-1.39
2018-02-02T03:53:03.503Z,-1.33
2018-02-02T03:54:03.559Z,-1.39
2018-02-02T03:55:03.410Z,-1.20
2018-02-02T03:56:03.360Z,-1.42
2018-02-02T03:57:03.345Z,-1.33
2018-02-02T03:58:03.410Z,-1.31
2018-02-02T03:59:03.205Z,-1.24
2018-02-02T04:00:03.155Z,-1.23
2018-02-02T04:01:03.118Z,-1.33
2018-02-02T04:02:03.084Z,-1.57
2018-02-02T04:03:03.016Z,-1.42
2018-02-02T04:04:02.960Z,-1.41
2018-02-02T04:05:02.907Z,-1.42
2018-02-02T04:06:02.956Z,-1.54
2018-02-02T04:07:02.830Z,-1.43
2018-02-02T04:08:02.757Z,-1.30
2018-02-02T04:09:02.735Z,-1.56
2018-02-02T04:10:02.808Z,-1.57
2018-02-02T04:11:02.679Z,-1.42
2018-02-02T04:12:02.574Z,-1.28
2018-02-02T04:13:02.518Z,-1.18
2018-02-02T04:14:02.478Z,-1.10
2018-02-02T04:15:02.417Z,-1.02
2018-02-02T04:16:02.385Z,-0.99
2018-02-02T04:17:02.327Z,-1.12
2018-02-02T04:18:02.276Z,-1.13
2018-02-02T04:19:02.232Z,-1.24
2018-02-02T04:20:02.191Z,-1.30
2018-02-02T04:21:02.128Z,-1.31
2018-02-02T04:22:02.087Z,-0.84
2018-02-02T04:23:02.076Z,-0.81
2018-02-02T04:24:02.004Z,-0.70
2018-02-02T04:25:01.953Z,-0.81
2018-02-02T04:26:01.914Z,-0.87
2018-02-02T04:27:01.828Z,-0.83
2018-02-02T04:28:01.787Z,-0.94
2018-02-02T04:29:01.769Z,-1.00
2018-02-02T04:30:01.696Z,-1.05
2018-02-02T04:31:01.672Z,-1.06
2018-02-02T04:32:01.591Z,-1.10
2018-02-02T04:33:01.578Z,-1.17
2018-02-02T04:34:01.509Z,-1.30
2018-02-02T04:35:01.494Z,-1.25
2018-02-02T04:36:01.399Z,-1.12
2018-02-02T04:37:01.342Z,-1.12
2018-02-02T04:38:01.302Z,-1.18
2018-02-02T04:39:01.295Z,-1.20
2018-02-02T04:40:01.192Z,-1.05
2018-02-02T04:41:01.142Z,-0.83
2018-02-02T04:42:01.099Z,-1.02
2018-02-02T04:43:01.197Z,-0.97
2018-02-02T04:44:01.010Z,-1.00
2018-02-02T04:45:01.010Z,-0.95
2018-02-02T04:46:00.898Z,-0.89
2018-02-02T04:47:00.858Z,-1.00
2018-02-02T04:48:00.993Z,-1.09
2018-02-02T04:49:00.775Z,-1.13
2018-02-02T04:50:00.719Z,-1.35
2018-02-02T04:51:00.718Z,-1.28
2018-02-02T04:52:00.605Z,-1.25
2018-02-02T04:53:00.579Z,-1.31
2018-02-02T04:54:00.509Z,-1.38
2018-02-02T04:55:00.502Z,-1.54
2018-02-02T04:56:00.415Z,-1.67
2018-02-02T04:57:00.384Z,-1.66
2018-02-02T04:58:00.332Z,-1.57
2018-02-02T04:59:00.280Z,-1.78
2018-02-02T05:00:00.221Z,-1.84
2018-02-02T05:01:00.208Z,-1.82
2018-02-02T05:02:00.154Z,-1.85
2018-02-02T05:03:00.118Z,-1.78
2018-02-02T05:04:00.067Z,-1.53
2018-02-02T05:04:59.968Z,-1.42
2018-02-02T05:05:59.930Z,-1.59
2018-02-02T05:06:59.890Z,-1.84
2018-02-02T05:07:59.825Z,-1.80
2018-02-02T05:08:59.782Z,-1.82
2018-02-02T05:09:59.849Z,-1.84
2018-02-02T05:10:59.763Z,-1.82
2018-02-02T05:11:59.636Z,-1.62
2018-02-02T05:12:59.570Z,-1.66
2018-02-02T05:13:59.540Z,-1.81
2018-02-02T05:14:59.525Z,-1.82
2018-02-02T05:15:59.450Z,-1.81
2018-02-02T05:16:59.389Z,-1.85
2018-02-02T05:17:59.328Z,-1.75
2018-02-02T05:18:59.282Z,-1.56
2018-02-02T05:19:59.240Z,-1.62
2018-02-02T05:20:59.223Z,-1.53
2018-02-02T05:21:59.151Z,-1.70
2018-02-02T05:22:59.089Z,-1.72
2018-02-02T05:23:59.051Z,-1.82
2018-02-02T05:24:59.041Z,-1.82
2018-02-02T05:25:58.947Z,-1.93
2018-02-02T05:26:58.908Z,-2.13
2018-02-02T05:27:58.868Z,-2.14
2018-02-02T05:28:58.803Z,-1.98
2018-02-02T05:29:58.737Z,-2.00
2018-02-02T05:30:58.698Z,-2.23
2018-02-02T05:31:58.648Z,-2.00
2018-02-02T05:32:58.601Z,-2.20
2018-02-02T05:33:58.555Z,-2.29
2018-02-02T05:34:58.503Z,-2.36
2018-02-02T05:35:58.474Z,-2.40
2018-02-02T05:36:58.442Z,-2.40
2018-02-02T05:37:58.363Z,-2.39
2018-02-02T05:38:58.315Z,-2.40
2018-02-02T05:39:58.251Z,-2.36
2018-02-02T05:40:58.243Z,-2.24
2018-02-02T05:41:58.148Z,-1.99
2018-02-02T05:42:58.101Z,-1.96
2018-02-02T05:43:58.068Z,-2.14
2018-02-02T05:44:58.135Z,-2.21
2018-02-02T05:45:57.995Z,-2.26
2018-02-02T05:46:57.921Z,-2.28
2018-02-02T05:47:57.910Z,-2.11
2018-02-02T05:48:57.821Z,-2.02
2018-02-02T05:49:57.766Z,-1.84
2018-02-02T05:50:57.886Z,-1.77
2018-02-02T05:51:57.704Z,-1.84
2018-02-02T05:52:57.633Z,-1.77
2018-02-02T05:53:57.568Z,-1.92
2018-02-02T05:54:57.528Z,-1.95
2018-02-02T05:55:57.490Z,-1.85
2018-02-02T05:56:57.414Z,-1.84
2018-02-02T05:57:57.399Z,-1.64
2018-02-02T05:58:57.449Z,-1.80
2018-02-02T05:59:57.321Z,-1.74
2018-02-02T06:00:57.319Z,-1.66
2018-02-02T06:01:57.247Z,-1.56
2018-02-02T06:02:57.157Z,-1.56
2018-02-02T06:03:57.069Z,-1.53
2018-02-02T06:04:57.028Z,-1.43
2018-02-02T06:05:57.036Z,-1.48
2018-02-02T06:06:56.958Z,-1.39
2018-02-02T06:07:56.941Z,-1.38
2018-02-02T06:08:56.845Z,-1.41
2018-02-02T06:09:56.825Z,-1.28
2018-02-02T06:10:56.745Z,-1.42
2018-02-02T06:11:56.693Z,-1.39
2018-02-02T06:12:56.632Z,-1.31
2018-02-02T06:13:56.582Z,-1.21
2018-02-02T06:14:56.539Z,-0.86
2018-02-02T06:15:56.499Z,-0.18
2018-02-02T06:16:56.436Z,0.13
2018-02-02T06:17:56.383Z,0.07
2018-02-02T06:18:56.353Z,-0.24
2018-02-02T06:19:56.283Z,-0.18
2018-02-02T06:20:56.278Z,-0.24
2018-02-02T06:21:56.214Z,0.07
2018-02-02T06:22:56.150Z,0.42
2018-02-02T06:23:56.142Z,0.51
2018-02-02T06:24:56.117Z,0.43
2018-02-02T06:25:55.995Z,0.58
2018-02-02T06:26:55.949Z,0.42
2018-02-02T06:27:55.914Z,0.25
2018-02-02T06:28:55.844Z,0.18
2018-02-02T06:29:55.806Z,0.05
2018-02-02T06:30:55.753Z,0.06
2018-02-02T06:31:55.710Z,0.03
2018-02-02T06:32:55.684Z,-0.15
2018-02-02T06:33:55.738Z,-0.12
2018-02-02T06:34:55.555Z,-0.26
2018-02-02T06:35:55.553Z,0.20
2018-02-02T06:36:55.488Z,0.25
2018-02-02T06:37:55.427Z,0.33
2018-02-02T06:38:55.357Z,0.33
2018-02-02T06:39:55.316Z,0.30
2018-02-02T06:40:55.284Z,0.34
2018-02-02T06:41:55.213Z,0.42
2018-02-02T06:42:55.275Z,0.51
2018-02-02T06:43:55.269Z,0.75
2018-02-02T06:44:55.184Z,0.76
2018-02-02T06:45:55.070Z,0.67
2018-02-02T06:46:55.143Z,0.86
2018-02-02T06:47:55.018Z,0.79
2018-02-02T06:48:54.921Z,0.96
2018-02-02T06:49:54.939Z,0.98
2018-02-02T06:50:54.849Z,0.98
2018-02-02T06:51:54.726Z,0.92
2018-02-02T06:52:54.699Z,0.86
2018-02-02T06:53:54.649Z,0.89
2018-02-02T06:54:54.651Z,0.89
2018-02-02T06:55:54.669Z,0.94
2018-02-02T06:56:54.647Z,0.97
2018-02-02T06:57:54.607Z,1.01
2018-02-02T06:58:54.514Z,1.26
2018-02-02T06:59:54.366Z,1.44
2018-02-02T07:00:54.350Z,1.39
2018-02-02T07:01:54.257Z,1.42
2018-02-02T07:02:54.218Z,1.52
2018-02-02T07:03:54.349Z,1.51
2018-02-02T07:04:54.264Z,1.46
2018-02-02T07:05:54.167Z,1.33
2018-02-02T07:06:54.084Z,1.36
2018-02-02T07:07:54.021Z,1.44
2018-02-02T07:08:56.642Z,1.43
2018-02-02T07:09:53.872Z,1.52
2018-02-02T07:10:53.942Z,1.47
2018-02-02T07:11:53.780Z,1.58
2018-02-02T07:12:53.765Z,1.52
2018-02-02T07:13:53.721Z,1.57
2018-02-02T07:14:53.773Z,1.43
2018-02-02T07:15:53.801Z,1.36
2018-02-02T07:16:53.601Z,1.39
2018-02-02T07:17:53.539Z,1.44
2018-02-02T07:18:53.568Z,1.54
2018-02-02T07:19:53.413Z,1.58
2018-02-02T07:20:53.438Z,1.64
2018-02-02T07:21:53.548Z,1.51
2018-02-02T07:22:53.265Z,1.57
2018-02-02T07:23:53.266Z,1.61
2018-02-02T07:24:53.352Z,1.75
2018-02-02T07:25:53.187Z,1.80
2018-02-02T07:26:53.358Z,1.79
2018-02-02T07:27:53.042Z,1.64
2018-02-02T07:28:53.026Z,1.72
2018-02-02T07:29:52.962Z,1.82
2018-02-02T07:30:52.903Z,1.78
2018-02-02T07:31:52.911Z,1.90
2018-02-02T07:32:52.911Z,1.99
2018-02-02T07:33:52.923Z,1.98
2018-02-02T07:34:52.763Z,1.97
2018-02-02T07:35:52.670Z,2.12
2018-02-02T07:36:52.827Z,2.06
2018-02-02T07:37:52.603Z,2.08
2018-02-02T07:38:52.582Z,2.02
2018-02-02T07:39:52.486Z,2.06
2018-02-02T07:40:52.461Z,2.15
2018-02-02T07:41:52.522Z,2.08
2018-02-02T07:42:52.613Z,2.12
2018-02-02T07:43:52.326Z,2.04
2018-02-02T07:44:52.256Z,2.08
2018-02-02T07:45:52.410Z,2.08
2018-02-02T07:46:52.128Z,2.16
2018-02-02T07:47:55.034Z,2.04
2018-02-02T07:48:52.050Z,2.04
2018-02-02T07:49:52.020Z,2.12
2018-02-02T07:50:52.010Z,2.10
2018-02-02T07:51:51.919Z,2.04
2018-02-02T07:52:51.873Z,2.02
2018-02-02T07:53:51.929Z,2.13
2018-02-02T07:54:51.809Z,2.06
2018-02-02T07:55:51.846Z,2.02
2018-02-02T07:56:51.758Z,2.01
2018-02-02T07:57:51.633Z,1.99
2018-02-02T07:58:51.659Z,1.85
2018-02-02T07:59:51.589Z,1.94
2018-02-02T08:00:51.638Z,1.90
2018-02-02T08:01:51.574Z,1.94
2018-02-02T08:02:51.608Z,1.97
2018-02-02T08:03:51.490Z,1.98
2018-02-02T08:04:51.289Z,2.01
2018-02-02T08:05:51.374Z,1.99
2018-02-02T08:06:51.194Z,2.01
2018-02-02T08:07:51.305Z,1.93
2018-02-02T08:08:51.132Z,1.99
2018-02-02T08:09:51.233Z,1.98
2018-02-02T08:10:51.147Z,2.01
2018-02-02T08:11:51.045Z,2.09
2018-02-02T08:12:51.035Z,1.97
2018-02-02T08:13:51.032Z,1.99
2018-02-02T08:14:50.887Z,2.15
2018-02-02T08:15:50.834Z,2.15
2018-02-02T08:16:50.780Z,2.23
2018-02-02T08:17:50.798Z,2.15
2018-02-02T08:18:50.721Z,2.09
2018-02-02T08:19:50.645Z,2.08
2018-02-02T08:20:50.600Z,2.15
2018-02-02T08:21:50.677Z,2.15
2018-02-02T08:22:50.534Z,2.09
2018-02-02T08:23:50.403Z,2.17
2018-02-02T08:24:51.033Z,2.52
2018-02-02T08:25:50.493Z,2.73
2018-02-02T08:26:50.275Z,2.92
2018-02-02T08:27:50.219Z,3.24
2018-02-02T08:28:50.310Z,3.43
2018-02-02T08:29:50.193Z,3.28
2018-02-02T08:30:50.741Z,3.10
2018-02-02T08:31:50.193Z,3.33
2018-02-02T08:32:50.126Z,3.54
2018-02-02T08:33:49.976Z,3.16
2018-02-02T08:34:49.935Z,2.97
2018-02-02T08:35:50.127Z,3.57
2018-02-02T08:36:49.973Z,4.04
2018-02-02T08:37:49.918Z,4.16
2018-02-02T08:38:50.009Z,4.29
2018-02-02T08:39:55.858Z,4.37
2018-02-02T08:40:50.032Z,4.29
2018-02-02T08:41:49.642Z,3.72
2018-02-02T08:42:49.594Z,3.89
2018-02-02T08:43:49.572Z,3.71
2018-02-02T08:44:49.696Z,3.31
2018-02-02T08:45:49.668Z,3.36
2018-02-02T08:46:49.648Z,3.67
2018-02-02T08:47:49.498Z,3.57
2018-02-02T08:48:49.490Z,3.24
2018-02-02T08:49:49.289Z,3.16
2018-02-02T08:50:54.389Z,3.28
2018-02-02T08:51:49.383Z,3.31
2018-02-02T08:52:49.189Z,3.12
2018-02-02T08:53:49.154Z,3.10
2018-02-02T08:54:49.049Z,3.24
2018-02-02T08:55:49.101Z,3.07
2018-02-02T08:56:49.094Z,3.02
2018-02-02T08:57:49.032Z,3.10
2018-02-02T08:58:48.945Z,3.07
2018-02-02T08:59:51.962Z,3.21
2018-02-02T09:00:49.005Z,3.33
2018-02-02T09:01:48.867Z,3.30
2018-02-02T09:02:49.090Z,3.30
2018-02-02T09:03:48.817Z,3.71
2018-02-02T09:04:48.761Z,3.94
2018-02-02T09:05:48.758Z,4.42
2018-02-02T09:06:48.720Z,5.10
2018-02-02T09:07:48.579Z,4.99
2018-02-02T09:08:48.535Z,5.89
2018-02-02T09:09:48.461Z,5.68
2018-02-02T09:10:48.486Z,5.89
2018-02-02T09:11:48.640Z,5.93
2018-02-02T09:12:48.320Z,5.63
2018-02-02T09:13:48.434Z,5.28
2018-02-02T09:14:48.478Z,4.83
2018-02-02T09:15:48.349Z,6.48
2018-02-02T09:16:48.141Z,6.47
2018-02-02T09:17:48.080Z,6.53
2018-02-02T09:18:48.044Z,7.01
2018-02-02T09:19:48.043Z,6.36
2018-02-02T09:20:48.035Z,6.26
2018-02-02T09:21:48.064Z,6.28
2018-02-02T09:22:47.886Z,6.51
2018-02-02T09:23:47.853Z,5.91
2018-02-02T09:24:47.812Z,6.01
2018-02-02T09:25:47.779Z,4.92
2018-02-02T09:26:48.075Z,4.16
2018-02-02T09:27:47.724Z,4.89
2018-02-02T09:28:47.758Z,5.63
2018-02-02T09:29:47.638Z,5.68
2018-02-02T09:30:47.653Z,6.04
2018-02-02T09:31:47.569Z,6.41
2018-02-02T09:32:47.558Z,5.63
2018-02-02T09:33:47.534Z,5.46
2018-02-02T09:34:47.460Z,4.59
2018-02-02T09:35:47.457Z,4.65
2018-02-02T09:36:47.398Z,4.21
2018-02-02T09:37:47.371Z,4.01
2018-02-02T09:38:47.369Z,4.08
2018-02-02T09:39:47.294Z,3.80
2018-02-02T09:40:47.360Z,3.70
2018-02-02T09:41:47.219Z,3.79
2018-02-02T09:42:47.401Z,3.72
2018-02-02T09:43:47.309Z,3.65
2018-02-02T09:44:47.292Z,3.68
2018-02-02T09:45:49.143Z,3.79
2018-02-02T09:46:47.255Z,3.78
2018-02-02T09:47:47.072Z,3.67
2018-02-02T09:48:46.957Z,3.65
2018-02-02T09:49:46.947Z,3.70
2018-02-02T09:50:46.981Z,3.65
2018-02-02T09:51:46.883Z,3.76
2018-02-02T09:52:46.791Z,3.70
2018-02-02T09:53:46.824Z,3.67
2018-02-02T09:54:46.707Z,3.78
2018-02-02T09:55:46.685Z,3.68
2018-02-02T09:56:46.661Z,3.65
2018-02-02T09:57:46.586Z,3.86
2018-02-02T09:58:46.545Z,3.90
2018-02-02T09:59:46.539Z,3.92
2018-02-02T10:00:46.526Z,3.96
2018-02-02T10:01:46.460Z,3.94
2018-02-02T10:02:46.387Z,3.86
2018-02-02T10:03:46.336Z,3.89
2018-02-02T10:04:46.298Z,3.85
2018-02-02T10:05:46.257Z,3.78
2018-02-02T10:06:46.209Z,3.98
2018-02-02T10:07:46.174Z,3.94
2018-02-02T10:08:46.159Z,4.10
2018-02-02T10:09:46.088Z,4.04
2018-02-02T10:10:46.041Z,3.96
2018-02-02T10:11:45.999Z,4.04
2018-02-02T10:12:45.952Z,3.86
2018-02-02T10:13:45.918Z,3.78
2018-02-02T10:14:45.861Z,3.88
2018-02-02T10:15:45.827Z,3.82
2018-02-02T10:16:45.782Z,3.86
2018-02-02T10:17:45.738Z,3.85
2018-02-02T10:18:45.714Z,4.00
2018-02-02T10:19:45.698Z,4.00
2018-02-02T10:20:45.614Z,3.92
2018-02-02T10:21:45.570Z,4.01
2018-02-02T10:22:45.517Z,4.10
2018-02-02T10:23:45.487Z,4.28
2018-02-02T10:24:45.516Z,4.34
2018-02-02T10:25:45.406Z,5.31
2018-02-02T10:26:45.351Z,4.70
2018-02-02T10:27:45.339Z,4.58
2018-02-02T10:28:45.264Z,4.32
2018-02-02T10:29:45.241Z,3.98
2018-02-02T10:30:45.204Z,4.43
2018-02-02T10:31:45.154Z,4.91
2018-02-02T10:32:45.120Z,4.39
2018-02-02T10:33:45.046Z,4.95
2018-02-02T10:34:45.019Z,4.59
2018-02-02T10:35:44.988Z,4.73
2018-02-02T10:36:44.924Z,4.72
2018-02-02T10:37:44.876Z,4.72
2018-02-02T10:38:44.851Z,4.55
2018-02-02T10:39:44.806Z,4.34
2018-02-02T10:40:44.754Z,4.51
2018-02-02T10:41:44.715Z,4.36
2018-02-02T10:42:44.673Z,4.36
2018-02-02T10:43:44.625Z,4.25
2018-02-02T10:44:44.586Z,4.16
2018-02-02T10:45:44.543Z,4.25
2018-02-02T10:46:44.517Z,4.14
2018-02-02T10:47:44.469Z,4.29
2018-02-02T10:48:44.428Z,4.37
2018-02-02T10:49:44.377Z,4.33
2018-02-02T10:50:44.337Z,4.18
2018-02-02T10:51:44.302Z,4.25
2018-02-02T10:52:44.250Z,4.14
2018-02-02T10:53:44.254Z,4.08
2018-02-02T10:54:44.198Z,4.19
2018-02-02T10:55:44.125Z,4.15
2018-02-02T10:56:44.084Z,4.24
2018-02-02T10:57:44.040Z,4.16
2018-02-02T10:58:44.013Z,4.07
2018-02-02T10:59:43.950Z,4.15
2018-02-02T11:00:43.948Z,4.00
2018-02-02T11:01:43.873Z,4.00
2018-02-02T11:02:43.832Z,3.90
2018-02-02T11:03:43.787Z,3.97
2018-02-02T11:04:43.754Z,3.79
2018-02-02T11:05:43.698Z,3.72
2018-02-02T11:06:43.660Z,3.72
2018-02-02T11:07:43.622Z,3.78
2018-02-02T11:08:43.572Z,3.75
2018-02-02T11:09:43.534Z,3.82
2018-02-02T11:10:43.484Z,3.71
2018-02-02T11:11:43.453Z,3.71
2018-02-02T11:12:43.393Z,3.75
2018-02-02T11:13:43.356Z,3.72
2018-02-02T11:14:43.311Z,3.65
2018-02-02T11:15:43.300Z,3.68
2018-02-02T11:16:43.220Z,3.70
2018-02-02T11:17:43.180Z,3.70
2018-02-02T11:18:43.138Z,3.76
2018-02-02T11:19:43.092Z,3.72
2018-02-02T11:20:43.051Z,3.75
2018-02-02T11:21:43.013Z,3.72
2018-02-02T11:22:42.958Z,3.72
2018-02-02T11:23:42.922Z,3.64
2018-02-02T11:24:42.873Z,3.68
2018-02-02T11:25:42.835Z,3.68
2018-02-02T11:26:42.788Z,3.70
2018-02-02T11:27:42.750Z,3.70
2018-02-02T11:28:42.707Z,3.75
2018-02-02T11:29:42.648Z,3.71
2018-02-02T11:30:42.608Z,3.64
2018-02-02T11:31:42.576Z,3.78
2018-02-02T11:32:42.522Z,3.78
2018-02-02T11:33:42.477Z,3.70
2018-02-02T11:34:42.443Z,3.68
2018-02-02T11:35:42.403Z,3.68
2018-02-02T11:36:42.355Z,3.71
2018-02-02T11:37:42.301Z,3.68
2018-02-02T11:38:42.254Z,3.70
2018-02-02T11:39:42.230Z,3.76
2018-02-02T11:40:42.186Z,3.68
2018-02-02T11:41:42.133Z,3.72
2018-02-02T11:42:42.087Z,3.80
2018-02-02T11:43:42.046Z,3.82
2018-02-02T11:44:41.987Z,3.75
2018-02-02T11:45:41.943Z,3.71
2018-02-02T11:46:41.915Z,3.78
2018-02-02T11:47:41.901Z,3.85
2018-02-02T11:48:41.822Z,3.78
2018-02-02T11:49:41.769Z,3.75
2018-02-02T11:50:41.722Z,3.71
2018-02-02T11:51:41.690Z,3.70
2018-02-02T11:52:41.641Z,3.67
2018-02-02T11:53:41.592Z,3.71
2018-02-02T11:54:41.553Z,3.71
2018-02-02T11:55:41.509Z,3.75
2018-02-02T11:56:41.458Z,3.88
2018-02-02T11:57:41.413Z,3.75
2018-02-02T11:58:41.396Z,3.78
2018-02-02T11:59:41.337Z,3.94
2018-02-02T12:00:41.291Z,4.00
2018-02-02T12:01:41.241Z,3.94
2018-02-02T12:02:41.200Z,3.98
2018-02-02T12:03:41.150Z,4.00
2018-02-02T12:04:41.106Z,3.92
2018-02-02T12:05:41.072Z,4.01
2018-02-02T12:06:41.013Z,4.12
2018-02-02T12:07:40.974Z,4.29
2018-02-02T12:08:40.931Z,4.22
2018-02-02T12:09:40.878Z,4.14
2018-02-02T12:10:40.850Z,4.29
2018-02-02T12:11:40.812Z,4.26
2018-02-02T12:12:40.749Z,4.44
2018-02-02T12:13:40.698Z,4.39
2018-02-02T12:14:40.654Z,4.37
2018-02-02T12:15:40.617Z,4.28
2018-02-02T12:16:40.588Z,4.10
2018-02-02T12:17:40.526Z,4.29
2018-02-02T12:18:40.491Z,4.21
2018-02-02T12:19:40.441Z,4.14
2018-02-02T12:20:40.415Z,4.33
2018-02-02T12:21:40.350Z,4.39
2018-02-02T12:22:40.329Z,4.40
2018-02-02T12:23:40.261Z,4.64
2018-02-02T12:24:40.223Z,4.86
2018-02-02T12:25:40.172Z,4.98
2018-02-02T12:26:40.136Z,4.91
2018-02-02T12:27:40.110Z,4.98
2018-02-02T12:28:40.054Z,5.01
2018-02-02T12:29:40.010Z,4.83
2018-02-02T12:30:39.976Z,4.69
2018-02-02T12:31:39.914Z,4.51
2018-02-02T12:32:39.897Z,4.46
2018-02-02T12:33:39.835Z,4.42
2018-02-02T12:34:39.788Z,4.51
2018-02-02T12:35:39.767Z,4.43
2018-02-02T12:36:39.714Z,4.39
2018-02-02T12:37:39.671Z,4.42
2018-02-02T12:38:39.613Z,4.51
2018-02-02T12:39:39.567Z,4.40
2018-02-02T12:40:39.531Z,4.42
2018-02-02T12:41:39.480Z,4.36
2018-02-02T12:42:39.476Z,4.39
2018-02-02T12:43:39.395Z,4.26
2018-02-02T12:44:39.346Z,4.15
2018-02-02T12:45:39.303Z,4.25
2018-02-02T12:46:39.259Z,4.32
2018-02-02T12:47:39.229Z,4.15
2018-02-02T12:48:39.177Z,4.32
2018-02-02T12:49:39.138Z,4.26
2018-02-02T12:50:39.096Z,4.28
2018-02-02T12:51:39.036Z,4.29
2018-02-02T12:52:39.003Z,4.25
2018-02-02T12:53:38.956Z,4.42
2018-02-02T12:54:38.911Z,4.29
2018-02-02T12:55:38.867Z,4.39
2018-02-02T12:56:38.823Z,4.39
2018-02-02T12:57:38.779Z,4.42
2018-02-02T12:58:38.744Z,4.32
2018-02-02T12:59:38.692Z,4.25
2018-02-02T13:00:38.652Z,4.42
2018-02-02T13:01:38.607Z,4.46
2018-02-02T13:02:38.570Z,4.43
2018-02-02T13:03:38.515Z,4.40
2018-02-02T13:04:38.484Z,4.40
2018-02-02T13:05:38.446Z,4.52
2018-02-02T13:06:38.387Z,4.50
2018-02-02T13:07:38.369Z,4.54